Time;durP1;ratioP1;P1;durP2;ratioP2;P2;SDS_P1;SDS_P2;PMS_P1;PMS_P2;Temp;Humidity;BMP_temperature;BMP_pressure;BME280_temperature;BME280_humidity;BME280_pressure;Samples;Min_cycle;Max_cycle;Signal;HPM_P1;HPM_P2
2024/02/10 00:01:46;;;;;;;13.37;10.57;;;;;;;14.40;63.66;94900.97;5030018;28;20939;-70
2024/02/10 00:04:21;;;;;;;14.23;9.67;;;;;;;14.43;63.60;94915.53;5045274;28;20425;-69
2024/02/10 00:06:46;;;;;;;12.80;9.93;;;;;;;14.38;63.32;94918.03;5033105;28;20801;-69
2024/02/10 00:09:13;;;;;;;15.70;10.97;;;;;;;14.45;63.43;94902.91;5031279;28;20431;-70
2024/02/10 00:11:38;;;;;;;12.27;9.90;;;;;;;14.43;63.26;94913.66;5037611;28;20275;-68
2024/02/10 00:14:05;;;;;;;31.00;15.97;;;;;;;14.34;63.34;94909.00;5028840;28;21221;-69
2024/02/10 00:16:33;;;;;;;28.27;15.53;;;;;;;14.37;63.13;94917.25;5029598;28;20747;-70
2024/02/10 00:19:02;;;;;;;17.67;11.73;;;;;;;14.18;63.84;94907.88;5028801;28;20431;-68
2024/02/10 00:21:29;;;;;;;14.50;12.13;;;;;;;14.28;63.68;94913.38;5035067;28;20500;-70
2024/02/10 00:23:56;;;;;;;15.40;11.80;;;;;;;14.24;63.50;94910.38;5029741;28;20469;-69
2024/02/10 00:26:22;;;;;;;14.50;10.43;;;;;;;14.16;63.87;94916.00;5039257;28;20994;-70
2024/02/10 00:28:51;;;;;;;13.83;10.37;;;;;;;14.20;63.59;94911.91;5038982;28;20428;-69
2024/02/10 00:31:16;;;;;;;11.33;9.90;;;;;;;14.27;63.77;94911.78;5028776;28;20196;-70
2024/02/10 00:33:46;;;;;;;11.90;9.80;;;;;;;14.27;63.45;94912.56;5036393;28;20424;-69
2024/02/10 00:36:12;;;;;;;11.80;10.33;;;;;;;14.24;63.46;94913.00;5029394;28;20278;-70
2024/02/10 00:38:40;;;;;;;14.90;9.60;;;;;;;14.33;63.22;94910.84;5029571;28;20433;-69
2024/02/10 00:41:06;;;;;;;11.90;10.70;;;;;;;14.28;63.41;94900.22;5029538;28;20462;-70
2024/02/10 00:43:32;;;;;;;11.97;9.93;;;;;;;14.25;63.55;94898.81;5028855;28;20438;-69
2024/02/10 00:45:59;;;;;;;12.17;9.60;;;;;;;14.24;63.73;94905.13;5029122;28;20418;-70
2024/02/10 00:48:28;;;;;;;12.77;9.77;;;;;;;14.29;63.49;94910.50;5028312;28;20180;-70
2024/02/10 00:51:00;;;;;;;10.33;9.13;;;;;;;14.29;63.36;94905.22;5031422;28;20448;-69
2024/02/10 00:53:26;;;;;;;14.70;10.20;;;;;;;14.33;63.13;94910.84;5032245;28;20797;-69
2024/02/10 00:55:51;;;;;;;13.90;10.50;;;;;;;14.25;63.48;94913.84;5040547;28;20410;-70
2024/02/10 00:58:17;;;;;;;12.73;11.00;;;;;;;14.18;63.70;94911.31;5036533;28;20554;-70
2024/02/10 01:00:45;;;;;;;13.00;10.50;;;;;;;14.12;63.99;94899.88;5028628;28;20207;-70
2024/02/10 01:03:13;;;;;;;13.07;10.70;;;;;;;14.11;64.23;94903.53;4995137;28;20191;-70
2024/02/10 01:05:39;;;;;;;17.30;10.37;;;;;;;14.12;64.10;94905.16;5037310;28;20425;-70
2024/02/10 01:08:08;;;;;;;14.40;10.40;;;;;;;14.10;63.90;94896.66;5028170;28;20481;-71
2024/02/10 01:10:34;;;;;;;12.03;9.47;;;;;;;14.17;64.05;94899.19;5031424;28;20484;-70
2024/02/10 01:13:03;;;;;;;15.33;10.50;;;;;;;14.18;63.75;94887.63;5032020;28;20506;-69
2024/02/10 01:15:32;;;;;;;11.60;9.60;;;;;;;14.09;64.10;94883.75;5028010;28;20698;-69
2024/02/10 01:18:04;;;;;;;11.70;10.07;;;;;;;14.19;64.01;94880.50;5030820;28;20439;-69
2024/02/10 01:20:30;;;;;;;16.80;10.33;;;;;;;14.08;64.01;94882.13;5010391;28;20466;-69
2024/02/10 01:22:59;;;;;;;13.70;9.43;;;;;;;14.16;64.02;94881.78;5035488;28;20417;-69
2024/02/10 01:25:24;;;;;;;10.50;9.10;;;;;;;14.18;63.53;94881.53;5028484;28;20203;-69
2024/02/10 01:27:50;;;;;;;15.63;9.10;;;;;;;14.08;64.15;94874.25;5028028;28;20423;-68
2024/02/10 01:30:20;;;;;;;12.07;10.00;;;;;;;14.03;64.28;94880.19;5027921;28;20274;-68
2024/02/10 01:32:46;;;;;;;13.63;9.97;;;;;;;14.12;63.75;94872.72;5027848;28;20431;-69
2024/02/10 01:35:11;;;;;;;12.33;9.27;;;;;;;14.21;63.76;94867.91;5027669;28;20484;-68
2024/02/10 01:37:38;;;;;;;10.20;8.27;;;;;;;14.19;63.96;94873.41;5028006;28;20960;-69
2024/02/10 01:40:09;;;;;;;12.20;9.60;;;;;;;14.20;63.47;94861.84;5027673;28;20234;-69
2024/02/10 01:42:38;;;;;;;11.47;8.60;;;;;;;14.12;63.74;94864.81;5044990;28;20418;-69
2024/02/10 01:45:08;;;;;;;10.83;9.50;;;;;;;14.01;63.96;94852.47;5031714;28;20419;-68
2024/02/10 01:47:36;;;;;;;16.60;9.07;;;;;;;13.97;64.33;94855.59;5029096;28;20844;-69
2024/02/10 01:50:03;;;;;;;12.27;9.60;;;;;;;14.11;64.32;94856.13;5029724;28;20425;-69
2024/02/10 01:52:28;;;;;;;11.57;8.77;;;;;;;14.11;64.09;94845.59;5026076;28;20676;-68
2024/02/10 01:54:54;;;;;;;10.27;8.33;;;;;;;14.14;64.19;94849.59;5027810;28;20517;-70
2024/02/10 01:57:20;;;;;;;12.10;8.07;;;;;;;14.20;63.97;94842.59;5028481;28;20820;-69
2024/02/10 01:59:47;;;;;;;10.20;8.40;;;;;;;14.19;63.56;94833.09;5028935;28;20214;-71
2024/02/10 02:02:14;;;;;;;15.57;8.50;;;;;;;14.16;63.48;94841.47;5035592;28;20831;-69
2024/02/10 02:04:40;;;;;;;11.93;7.57;;;;;;;14.17;63.40;94837.81;5038593;28;20811;-69
2024/02/10 02:07:10;;;;;;;10.17;7.47;;;;;;;14.18;63.58;94834.94;5034119;28;20415;-69
2024/02/10 02:09:36;;;;;;;10.30;7.57;;;;;;;14.14;63.67;94825.91;5021225;28;20175;-68
2024/02/10 02:12:07;;;;;;;11.20;7.40;;;;;;;14.12;63.77;94827.97;5035579;28;20447;-69
2024/02/10 02:14:36;;;;;;;19.03;7.47;;;;;;;14.13;63.82;94819.03;5026906;28;20431;-68
2024/02/10 02:17:05;;;;;;;8.00;7.00;;;;;;;14.24;63.69;94826.09;5028945;28;20418;-69
2024/02/10 02:19:34;;;;;;;9.57;7.00;;;;;;;14.23;63.56;94811.34;5026623;28;20553;-69
2024/02/10 02:22:00;;;;;;;8.20;6.67;;;;;;;14.23;63.39;94810.53;5027948;28;20947;-69
2024/02/10 02:24:30;;;;;;;13.57;6.60;;;;;;;14.21;63.61;94817.88;5025889;28;20434;-69
2024/02/10 02:26:56;;;;;;;11.97;8.43;;;;;;;14.25;63.67;94811.09;5027499;28;20438;-69
2024/02/10 02:29:22;;;;;;;8.70;6.90;;;;;;;14.24;63.66;94810.28;5027106;28;20422;-69
2024/02/10 02:31:47;;;;;;;8.67;7.10;;;;;;;14.25;63.40;94804.00;5035350;28;20448;-70
2024/02/10 02:34:13;;;;;;;10.63;6.63;;;;;;;14.27;63.21;94794.03;5036823;28;20219;-69
2024/02/10 02:36:39;;;;;;;9.73;6.47;;;;;;;14.28;62.93;94792.22;5035641;28;20184;-69
2024/02/10 02:39:05;;;;;;;10.37;7.07;;;;;;;14.25;63.02;94785.56;5024078;28;20195;-69
2024/02/10 02:41:31;;;;;;;7.37;6.40;;;;;;;14.28;63.22;94784.31;5033157;28;20503;-66
2024/02/10 02:43:57;;;;;;;6.60;5.93;;;;;;;14.22;63.03;94783.41;5027210;28;20434;-68
2024/02/10 02:46:24;;;;;;;7.53;6.30;;;;;;;14.27;62.92;94775.59;5028558;28;20196;-68
2024/02/10 02:48:52;;;;;;;7.53;6.73;;;;;;;14.14;63.03;94775.84;5028306;28;20421;-68
2024/02/10 02:51:20;;;;;;;8.43;6.43;;;;;;;14.11;63.37;94766.59;5040528;28;20480;-69
2024/02/10 02:53:48;;;;;;;10.37;7.30;;;;;;;14.16;63.39;94767.75;5027477;28;20419;-69
2024/02/10 02:56:15;;;;;;;9.80;8.10;;;;;;;14.20;63.22;94760.94;5034293;28;20418;-68
2024/02/10 02:58:40;;;;;;;9.90;7.33;;;;;;;14.00;63.54;94764.00;5030533;28;20446;-68
2024/02/10 03:01:07;;;;;;;10.30;7.50;;;;;;;14.07;63.54;94759.41;5029474;28;20462;-69
2024/02/10 03:03:33;;;;;;;12.00;7.20;;;;;;;14.10;63.36;94757.09;5030826;28;20199;-70
2024/02/10 03:05:59;;;;;;;11.23;6.07;;;;;;;14.11;63.27;94750.00;5035552;28;20422;-69
2024/02/10 03:08:26;;;;;;;13.13;6.97;;;;;;;14.09;63.54;94757.34;5037206;28;20188;-69
2024/02/10 03:10:51;;;;;;;8.67;7.77;;;;;;;14.05;63.15;94745.66;5031248;28;20206;-70
2024/02/10 03:13:16;;;;;;;8.90;7.40;;;;;;;13.95;63.26;94741.00;5030303;28;20442;-70
2024/02/10 03:15:46;;;;;;;9.50;7.20;;;;;;;13.99;63.95;94744.78;5030392;28;20188;-69
2024/02/10 03:18:12;;;;;;;8.17;6.40;;;;;;;14.04;63.36;94744.06;5030309;28;20188;-70
2024/02/10 03:20:37;;;;;;;7.90;6.77;;;;;;;14.03;63.25;94745.09;5030369;28;20900;-70
2024/02/10 03:23:03;;;;;;;9.73;6.80;;;;;;;14.03;63.29;94745.91;5037423;28;20186;-69
2024/02/10 03:25:29;;;;;;;8.87;7.00;;;;;;;14.06;63.29;94742.78;5045819;28;20187;-69
2024/02/10 03:27:55;;;;;;;8.07;6.63;;;;;;;14.04;62.90;94744.06;5030361;28;20237;-69
2024/02/10 03:30:23;;;;;;;7.90;7.03;;;;;;;13.85;63.51;94736.34;5030715;28;20461;-70
2024/02/10 03:32:53;;;;;;;8.70;7.33;;;;;;;13.78;63.17;94735.66;5036476;28;20421;-70
2024/02/10 03:35:19;;;;;;;11.10;7.90;;;;;;;13.85;63.23;94740.81;5029692;28;20423;-68
2024/02/10 03:37:44;;;;;;;9.30;6.80;;;;;;;13.87;63.05;94736.91;5029810;28;20845;-69
2024/02/10 03:40:11;;;;;;;9.67;6.80;;;;;;;13.91;63.22;94742.53;5029314;28;20460;-69
2024/02/10 03:42:36;;;;;;;7.97;7.17;;;;;;;13.86;63.11;94735.28;5029171;28;20196;-69
2024/02/10 03:45:02;;;;;;;11.47;8.37;;;;;;;13.86;63.48;94745.81;5038317;28;21089;-69
2024/02/10 03:47:27;;;;;;;13.40;10.33;;;;;;;13.71;63.24;94740.28;5029868;28;20865;-68
2024/02/10 03:49:53;;;;;;;14.07;11.03;;;;;;;13.63;63.55;94736.94;5033272;28;20176;-68
2024/02/10 03:52:18;;;;;;;14.67;11.47;;;;;;;13.46;64.57;94738.72;5037723;28;20282;-69
2024/02/10 03:54:43;;;;;;;19.87;11.40;;;;;;;13.32;64.69;94744.19;5043985;28;20279;-70
2024/02/10 03:57:09;;;;;;;22.23;12.77;;;;;;;13.10;65.59;94730.00;5029316;28;20226;-69
2024/02/10 03:59:41;;;;;;;15.40;11.93;;;;;;;13.18;65.86;94732.28;5031780;28;20227;-69
2024/02/10 04:02:06;;;;;;;14.03;11.73;;;;;;;13.18;65.94;94727.03;5028813;28;20207;-70
2024/02/10 04:04:34;;;;;;;15.40;13.37;;;;;;;13.24;65.87;94735.81;5027812;28;20828;-69
2024/02/10 04:07:00;;;;;;;19.00;14.00;;;;;;;13.28;65.76;94737.75;5038248;28;20184;-69
2024/02/10 04:09:25;;;;;;;38.23;13.23;;;;;;;13.25;65.59;94735.59;5036018;28;20423;-69
2024/02/10 04:11:51;;;;;;;24.40;14.03;;;;;;;13.18;65.99;94743.59;5034240;28;20355;-69
2024/02/10 04:14:20;;;;;;;49.00;13.67;;;;;;;13.18;66.11;94737.53;5038771;28;20204;-69
2024/02/10 04:16:52;;;;;;;17.27;13.47;;;;;;;13.20;66.29;94741.53;5016763;28;20682;-69
2024/02/10 04:19:18;;;;;;;18.20;14.10;;;;;;;13.28;66.32;94740.41;5032548;28;20418;-70
2024/02/10 04:21:46;;;;;;;30.13;13.90;;;;;;;13.31;65.58;94741.75;5031153;28;20449;-69
2024/02/10 04:24:14;;;;;;;84.37;13.77;;;;;;;13.30;65.41;94740.16;5030035;28;20505;-69
2024/02/10 04:26:40;;;;;;;41.80;14.20;;;;;;;13.30;65.69;94743.59;5025848;28;20427;-69
2024/02/10 04:29:06;;;;;;;71.67;14.37;;;;;;;13.31;65.67;94745.19;5031182;28;20440;-71
2024/02/10 04:31:31;;;;;;;17.07;13.27;;;;;;;13.39;65.55;94737.97;5028643;28;20434;-70
2024/02/10 04:33:57;;;;;;;16.73;13.30;;;;;;;13.42;65.26;94742.81;5026363;28;20190;-70
2024/02/10 04:36:22;;;;;;;29.60;14.30;;;;;;;13.36;64.66;94742.66;5015015;28;20708;-70
2024/02/10 04:38:48;;;;;;;17.63;12.80;;;;;;;13.32;65.09;94743.34;5027675;28;20269;-70
2024/02/10 04:41:13;;;;;;;15.50;12.40;;;;;;;13.32;65.24;94746.81;5033417;28;20231;-69
2024/02/10 04:43:39;;;;;;;19.03;13.90;;;;;;;13.38;65.33;94739.81;5036191;28;20211;-70
2024/02/10 04:46:04;;;;;;;20.67;13.90;;;;;;;13.42;64.90;94737.56;5017764;28;20245;-69
2024/02/10 04:48:30;;;;;;;18.17;13.43;;;;;;;13.45;64.91;94731.84;5021041;28;20188;-69
2024/02/10 04:50:56;;;;;;;17.40;13.07;;;;;;;13.48;64.96;94736.66;5033905;28;20197;-70
2024/02/10 04:53:25;;;;;;;16.40;12.57;;;;;;;13.53;64.75;94736.75;5029155;28;20194;-69
2024/02/10 04:55:50;;;;;;;16.90;13.70;;;;;;;13.55;64.74;94741.75;5037556;28;20776;-69
2024/02/10 04:58:16;;;;;;;18.97;13.47;;;;;;;13.45;64.51;94731.84;5028034;28;20484;-68
2024/02/10 05:00:41;;;;;;;17.03;12.70;;;;;;;13.47;64.53;94737.69;5031822;28;20714;-69
2024/02/10 05:03:07;;;;;;;16.27;13.33;;;;;;;13.48;64.58;94739.28;5011388;28;20179;-70
2024/02/10 05:05:32;;;;;;;20.90;14.43;;;;;;;13.54;64.63;94740.97;5029499;28;20179;-70
2024/02/10 05:07:58;;;;;;;18.27;13.53;;;;;;;13.59;64.24;94740.28;5030219;28;20211;-69
2024/02/10 05:10:24;;;;;;;19.43;14.30;;;;;;;13.48;64.33;94740.06;5030054;28;20895;-70
2024/02/10 05:12:51;;;;;;;18.67;13.80;;;;;;;13.44;64.48;94746.03;5029397;28;20195;-71
2024/02/10 05:15:22;;;;;;;15.70;12.50;;;;;;;13.46;64.12;94741.34;5023727;28;20960;-70
2024/02/10 05:17:49;;;;;;;19.30;14.43;;;;;;;13.48;64.43;94728.75;5028580;28;20508;-70
2024/02/10 05:20:18;;;;;;;18.03;14.00;;;;;;;13.46;64.18;94733.44;5028714;28;20485;-70
2024/02/10 05:22:47;;;;;;;18.97;13.53;;;;;;;13.44;64.29;94730.25;5026129;28;21088;-69
2024/02/10 05:25:13;;;;;;;17.23;13.87;;;;;;;13.45;64.21;94726.59;5028902;28;20780;-70
2024/02/10 05:27:39;;;;;;;22.07;15.13;;;;;;;13.48;64.33;94728.75;5030638;28;20488;-70
2024/02/10 05:30:10;;;;;;;20.97;14.97;;;;;;;13.47;64.28;94735.06;5035065;28;20446;-70
2024/02/10 05:32:38;;;;;;;19.03;14.50;;;;;;;13.47;64.52;94724.53;5027007;28;20447;-69
2024/02/10 05:35:03;;;;;;;19.47;13.87;;;;;;;13.39;64.38;94722.19;5032278;28;20494;-70
2024/02/10 05:37:29;;;;;;;17.17;14.43;;;;;;;13.41;64.67;94712.28;5026243;28;20537;-70
2024/02/10 05:39:54;;;;;;;18.80;15.10;;;;;;;13.35;64.82;94719.25;5025652;28;20237;-69
2024/02/10 05:42:20;;;;;;;21.30;14.90;;;;;;;13.42;64.43;94713.88;5037066;28;20238;-69
2024/02/10 05:44:45;;;;;;;20.93;16.03;;;;;;;13.39;64.50;94722.19;5025600;28;20225;-71
2024/02/10 05:47:11;;;;;;;23.80;14.47;;;;;;;13.43;64.41;94718.13;5025720;28;20187;-70
2024/02/10 05:49:36;;;;;;;17.77;13.50;;;;;;;13.49;64.54;94709.28;5010855;28;20633;-69
2024/02/10 05:52:05;;;;;;;18.90;14.10;;;;;;;13.47;64.33;94708.75;5028867;28;20229;-69
2024/02/10 05:54:33;;;;;;;19.17;14.70;;;;;;;13.40;64.13;94718.56;5028774;28;20540;-68
2024/02/10 05:56:58;;;;;;;21.00;14.90;;;;;;;13.46;64.31;94712.41;5019173;28;20447;-68
2024/02/10 05:59:24;;;;;;;19.90;14.57;;;;;;;13.44;64.37;94709.97;5034904;28;20505;-68
2024/02/10 06:01:51;;;;;;;19.87;14.63;;;;;;;13.48;64.09;94715.59;5031649;28;20641;-68
2024/02/10 06:04:17;;;;;;;18.63;14.20;;;;;;;13.44;64.14;94715.25;5032559;28;20187;-68
2024/02/10 06:06:45;;;;;;;18.60;13.97;;;;;;;13.49;64.28;94712.72;5026175;28;20434;-68
2024/02/10 06:09:10;;;;;;;18.87;14.40;;;;;;;13.52;63.82;94712.28;5031902;28;20190;-68
2024/02/10 06:11:36;;;;;;;17.30;13.30;;;;;;;13.59;63.96;94729.75;5032718;28;20438;-68
2024/02/10 06:14:01;;;;;;;17.87;13.17;;;;;;;13.61;63.88;94723.22;5031128;28;20187;-68
2024/02/10 06:16:26;;;;;;;18.03;14.63;;;;;;;13.58;64.06;94728.97;5013689;28;20250;-69
2024/02/10 06:18:52;;;;;;;19.93;14.50;;;;;;;13.54;63.91;94735.72;5033956;28;20248;-69
2024/02/10 06:21:17;;;;;;;17.30;14.30;;;;;;;13.53;64.27;94728.84;5029097;28;20235;-69
2024/02/10 06:23:43;;;;;;;19.10;14.17;;;;;;;13.58;63.99;94722.88;5027872;28;20292;-68
2024/02/10 06:26:10;;;;;;;19.40;14.60;;;;;;;13.52;63.64;94721.97;5034560;28;20273;-69
2024/02/10 06:28:36;;;;;;;18.70;14.97;;;;;;;13.55;63.80;94721.53;5031633;28;20609;-68
2024/02/10 06:31:02;;;;;;;17.33;13.93;;;;;;;13.52;63.85;94719.34;5033417;28;20473;-68
2024/02/10 06:33:30;;;;;;;17.57;13.90;;;;;;;13.56;63.74;94720.50;5031557;28;21010;-69
2024/02/10 06:36:00;;;;;;;19.03;15.40;;;;;;;13.47;63.71;94719.25;5032974;28;20191;-68
2024/02/10 06:38:32;;;;;;;22.50;16.00;;;;;;;13.34;64.00;94723.72;5031278;28;20419;-68
2024/02/10 06:41:03;;;;;;;22.70;16.80;;;;;;;13.19;64.28;94723.38;5039865;28;20504;-68
2024/02/10 06:43:31;;;;;;;22.03;14.37;;;;;;;13.36;64.48;94719.00;5042513;28;20417;-68
2024/02/10 06:46:00;;;;;;;23.47;15.90;;;;;;;13.46;64.11;94722.94;5034950;28;20572;-69
2024/02/10 06:48:30;;;;;;;22.37;16.27;;;;;;;13.44;63.52;94732.88;5052694;28;20942;-70
2024/02/10 06:50:55;;;;;;;21.67;14.97;;;;;;;13.43;63.54;94723.38;5032995;28;20522;-70
2024/02/10 06:53:20;;;;;;;17.60;13.70;;;;;;;13.47;63.78;94729.78;5031743;28;20484;-70
2024/02/10 06:55:50;;;;;;;22.10;14.43;;;;;;;13.49;63.76;94733.78;5030831;28;20184;-69
2024/02/10 06:58:19;;;;;;;18.00;14.47;;;;;;;13.46;63.75;94733.44;4997193;28;20657;-69
2024/02/10 07:00:44;;;;;;;20.37;16.20;;;;;;;13.45;63.92;94737.91;5030781;28;20543;-69
2024/02/10 07:03:10;;;;;;;19.50;15.40;;;;;;;13.37;64.19;94732.97;5030667;28;20430;-70
2024/02/10 07:05:37;;;;;;;19.83;15.60;;;;;;;13.30;63.75;94729.63;5032302;28;20183;-69
2024/02/10 07:08:03;;;;;;;20.97;14.97;;;;;;;13.12;64.34;94733.19;5030200;28;20184;-69
2024/02/10 07:10:28;;;;;;;21.83;15.30;;;;;;;13.24;64.04;94739.25;5033084;28;20468;-69
2024/02/10 07:12:54;;;;;;;20.30;16.07;;;;;;;13.09;64.76;94736.28;5031501;28;20192;-70
2024/02/10 07:15:21;;;;;;;29.80;20.03;;;;;;;13.24;64.44;94741.88;5030518;28;20227;-69
2024/02/10 07:17:49;;;;;;;34.10;21.50;;;;;;;13.19;64.16;94739.94;5029627;28;20651;-69
2024/02/10 07:20:20;;;;;;;37.30;22.60;;;;;;;13.21;64.64;94737.09;5033854;28;20453;-69
2024/02/10 07:22:55;;;;;;;34.17;23.13;;;;;;;13.26;64.38;94739.81;5032757;28;20425;-69
2024/02/10 07:25:28;;;;;;;36.23;22.07;;;;;;;13.13;65.26;94742.69;5029450;28;20445;-69
2024/02/10 07:28:00;;;;;;;28.07;17.73;;;;;;;13.23;65.13;94736.84;5026709;28;20562;-70
2024/02/10 07:30:27;;;;;;;21.90;16.30;;;;;;;13.35;64.67;94727.94;5029670;28;20444;-69
2024/02/10 07:32:54;;;;;;;24.80;16.23;;;;;;;13.35;64.14;94732.38;5029758;28;20456;-70
2024/02/10 07:35:22;;;;;;;28.23;17.13;;;;;;;13.36;64.24;94742.66;5032743;28;20433;-70
2024/02/10 07:37:48;;;;;;;26.37;17.90;;;;;;;13.35;64.35;94741.09;5029554;28;20911;-69
2024/02/10 07:40:13;;;;;;;27.73;18.70;;;;;;;13.37;64.50;94735.59;5025140;28;20454;-69
2024/02/10 07:42:39;;;;;;;28.07;19.73;;;;;;;13.31;64.51;94742.56;5034222;28;20454;-68
2024/02/10 07:45:05;;;;;;;33.50;20.37;;;;;;;13.26;65.05;94739.81;5025489;28;20194;-69
2024/02/10 07:47:31;;;;;;;30.50;19.83;;;;;;;13.35;65.12;94735.03;5028772;28;20426;-68
2024/02/10 07:49:58;;;;;;;30.43;19.20;;;;;;;13.41;65.09;94734.16;5029848;28;20425;-69
2024/02/10 07:52:26;;;;;;;29.70;20.07;;;;;;;13.46;64.93;94738.72;5031333;28;20210;-69
2024/02/10 07:54:51;;;;;;;25.30;18.87;;;;;;;13.48;64.77;94747.19;5028959;28;20426;-68
2024/02/10 07:57:19;;;;;;;34.87;18.30;;;;;;;13.51;64.61;94741.44;5029555;28;20931;-69
2024/02/10 07:59:55;;;;;;;23.47;18.07;;;;;;;13.55;64.59;94733.88;5029444;28;20204;-68
2024/02/10 08:02:23;;;;;;;23.70;17.27;;;;;;;13.56;64.72;94728.41;5028613;28;20871;-69
2024/02/10 08:04:51;;;;;;;24.57;19.03;;;;;;;13.56;64.73;94722.31;5029523;28;20421;-69
2024/02/10 08:07:18;;;;;;;23.93;18.43;;;;;;;13.52;64.67;94729.88;5030856;28;20419;-68
2024/02/10 08:09:44;;;;;;;26.90;19.30;;;;;;;13.47;65.20;94727.16;5029602;28;20419;-69
2024/02/10 08:12:09;;;;;;;43.77;19.90;;;;;;;13.47;65.37;94729.78;5034083;28;20440;-69
2024/02/10 08:14:39;;;;;;;23.33;18.30;;;;;;;13.43;65.57;94724.16;5032774;28;20195;-70
2024/02/10 08:17:07;;;;;;;24.07;18.07;;;;;;;13.48;65.56;94726.13;5032802;28;20337;-70
2024/02/10 08:19:35;;;;;;;26.03;17.70;;;;;;;13.54;65.33;94724.41;5037177;28;20434;-70
2024/02/10 08:22:07;;;;;;;27.27;18.77;;;;;;;13.60;65.49;94723.47;5032519;28;20914;-70
2024/02/10 08:24:34;;;;;;;26.03;19.07;;;;;;;13.58;65.44;94721.06;5028049;28;20430;-70
2024/02/10 08:26:59;;;;;;;23.33;18.23;;;;;;;13.69;65.49;94710.75;5028919;28;20925;-70
2024/02/10 08:29:27;;;;;;;29.73;21.40;;;;;;;13.78;64.91;94709.34;5029322;28;20421;-69
2024/02/10 08:31:52;;;;;;;25.20;19.77;;;;;;;13.83;64.78;94702.34;5036633;28;20195;-69
2024/02/10 08:34:19;;;;;;;28.97;20.43;;;;;;;13.88;64.62;94709.53;5029616;28;20457;-69
2024/02/10 08:36:45;;;;;;;29.20;21.87;;;;;;;13.91;64.30;94693.28;5028924;28;20195;-69
2024/02/10 08:39:10;;;;;;;32.67;21.10;;;;;;;13.82;64.13;94692.06;5028642;28;20426;-70
2024/02/10 08:41:36;;;;;;;30.10;21.17;;;;;;;13.70;64.39;94688.66;5033876;28;20299;-70
2024/02/10 08:44:01;;;;;;;30.57;22.17;;;;;;;13.75;64.18;94688.75;5036858;28;20260;-68
2024/02/10 08:46:26;;;;;;;27.33;20.80;;;;;;;13.76;64.54;94691.16;5028813;28;20192;-70
2024/02/10 08:48:52;;;;;;;30.43;21.40;;;;;;;13.89;64.33;94699.81;5035733;28;20194;-69
2024/02/10 08:51:18;;;;;;;29.23;21.73;;;;;;;13.89;63.72;94700.63;5028288;28;20688;-69
2024/02/10 08:53:43;;;;;;;30.80;21.87;;;;;;;13.89;63.74;94694.56;5028591;28;20426;-69
2024/02/10 08:56:12;;;;;;;36.93;22.00;;;;;;;13.92;63.76;94692.25;5029259;28;20768;-70
2024/02/10 08:58:41;;;;;;;30.23;21.87;;;;;;;13.90;63.68;94689.06;5036759;28;20191;-70
2024/02/10 09:01:07;;;;;;;30.50;21.47;;;;;;;13.91;64.12;94692.50;5033350;28;20469;-70
2024/02/10 09:03:33;;;;;;;27.70;20.50;;;;;;;13.92;63.30;94692.25;5028882;28;20453;-69
2024/02/10 09:05:59;;;;;;;29.37;21.20;;;;;;;13.96;63.68;94690.75;5029002;28;20422;-68
2024/02/10 09:08:24;;;;;;;28.23;20.03;;;;;;;13.91;63.27;94693.28;5028434;28;20183;-70
2024/02/10 09:10:49;;;;;;;28.30;20.67;;;;;;;13.98;63.63;94701.84;5034895;28;20219;-70
2024/02/10 09:13:15;;;;;;;27.80;18.93;;;;;;;14.03;63.44;94702.97;5038905;28;20186;-69
2024/02/10 09:15:40;;;;;;;22.63;17.20;;;;;;;14.00;63.34;94711.31;5033550;28;20202;-68
2024/02/10 09:18:06;;;;;;;25.57;18.20;;;;;;;14.00;63.13;94708.69;5028136;28;20230;-69
2024/02/10 09:20:32;;;;;;;23.87;17.77;;;;;;;13.91;63.24;94711.72;5028791;28;20206;-70
2024/02/10 09:23:03;;;;;;;21.50;17.00;;;;;;;13.87;63.53;94718.47;5032183;28;20678;-69
2024/02/10 09:25:28;;;;;;;23.63;17.00;;;;;;;13.78;63.63;94720.69;5026031;28;20439;-69
2024/02/10 09:27:58;;;;;;;22.63;17.10;;;;;;;13.79;63.60;94710.94;5028005;28;20517;-70
2024/02/10 09:30:25;;;;;;;21.50;16.90;;;;;;;13.87;63.88;94722.94;5027403;28;20206;-70
2024/02/10 09:32:51;;;;;;;24.07;17.37;;;;;;;13.79;63.61;94722.28;5028331;28;20414;-70
2024/02/10 09:35:20;;;;;;;24.00;17.67;;;;;;;13.77;63.60;94724.34;5028516;28;20457;-69
2024/02/10 09:37:46;;;;;;;27.57;19.00;;;;;;;13.79;63.79;94727.56;5028496;28;20454;-70
2024/02/10 09:40:12;;;;;;;23.47;16.67;;;;;;;13.85;63.54;94720.56;5027273;28;20512;-71
2024/02/10 09:42:42;;;;;;;27.07;18.27;;;;;;;13.86;63.40;94719.50;5027843;28;20466;-73
2024/02/10 09:45:09;;;;;;;26.10;18.20;;;;;;;13.90;63.54;94715.38;5025620;28;20217;-69
2024/02/10 09:47:35;;;;;;;30.37;19.33;;;;;;;13.98;63.46;94715.03;5026516;28;20422;-70
2024/02/10 09:50:04;;;;;;;25.80;17.47;;;;;;;14.05;63.25;94714.06;5030354;28;20426;-69
2024/02/10 09:52:31;;;;;;;23.60;17.90;;;;;;;14.06;63.28;94713.03;5028126;28;20446;-69
2024/02/10 09:54:56;;;;;;;27.23;19.80;;;;;;;14.10;63.23;94716.81;5028053;28;20450;-69
2024/02/10 09:57:22;;;;;;;27.67;19.73;;;;;;;14.10;62.74;94714.19;5029269;28;20513;-69
2024/02/10 09:59:48;;;;;;;26.23;19.10;;;;;;;14.13;62.89;94716.31;5028252;28;20302;-71
2024/02/10 10:02:15;;;;;;;25.87;19.23;;;;;;;14.11;62.61;94713.94;5014533;28;20243;-70
2024/02/10 10:04:40;;;;;;;25.90;18.13;;;;;;;14.13;62.72;94711.06;5031221;28;20187;-69
2024/02/10 10:07:08;;;;;;;27.30;19.60;;;;;;;14.10;63.03;94716.81;5029606;28;20519;-70
2024/02/10 10:09:33;;;;;;;29.17;17.67;;;;;;;14.06;63.10;94705.94;5014271;28;20274;-71
2024/02/10 10:11:59;;;;;;;27.30;17.93;;;;;;;14.19;63.08;94704.03;5035646;28;20533;-71
2024/02/10 10:14:24;;;;;;;26.67;17.57;;;;;;;14.18;62.95;94699.81;5027410;28;20278;-70
2024/02/10 10:16:56;;;;;;;29.10;20.13;;;;;;;14.17;63.16;94709.56;5029291;28;20179;-70
2024/02/10 10:19:21;;;;;;;24.67;18.83;;;;;;;14.10;63.07;94707.06;5033893;28;20205;-71
2024/02/10 10:21:49;;;;;;;24.20;17.63;;;;;;;14.04;63.03;94701.94;5032040;28;20458;-71
2024/02/10 10:24:15;;;;;;;25.27;17.80;;;;;;;14.06;63.48;94705.13;5026190;28;20594;-72
2024/02/10 10:26:41;;;;;;;22.00;16.23;;;;;;;14.06;62.82;94694.59;5026739;28;20484;-72
2024/02/10 10:29:10;;;;;;;36.03;25.53;;;;;;;14.05;62.73;94699.06;5034630;28;20430;-71
2024/02/10 10:31:37;;;;;;;26.63;21.50;;;;;;;14.16;62.79;94684.25;5009616;28;20200;-71
2024/02/10 10:34:06;;;;;;;47.33;38.30;;;;;;;14.20;62.62;94684.56;5029132;28;20425;-71
2024/02/10 10:36:32;;;;;;;43.33;33.50;;;;;;;14.18;62.75;94676.91;5024885;28;20494;-71
2024/02/10 10:38:58;;;;;;;24.40;17.97;;;;;;;14.20;62.19;94680.13;5029628;28;20411;-71
2024/02/10 10:41:24;;;;;;;22.20;16.20;;;;;;;14.24;62.43;94670.69;5032420;28;20462;-71
2024/02/10 10:43:50;;;;;;;22.33;15.70;;;;;;;14.20;62.17;94663.50;5038651;28;20426;-70
2024/02/10 10:46:19;;;;;;;24.40;16.47;;;;;;;14.26;62.27;94662.56;5040758;28;20184;-71
2024/02/10 10:48:45;;;;;;;22.77;17.63;;;;;;;14.27;61.96;94653.63;5034157;28;20477;-71
2024/02/10 10:51:12;;;;;;;22.80;17.20;;;;;;;14.34;62.41;94640.31;5029314;28;20478;-71
2024/02/10 10:53:40;;;;;;;25.57;17.43;;;;;;;14.40;62.54;94642.78;5027603;28;20703;-71
2024/02/10 10:56:07;;;;;;;25.43;18.43;;;;;;;14.45;62.70;94628.91;5039580;28;20437;-72
2024/02/10 10:58:38;;;;;;;27.37;18.27;;;;;;;14.53;62.56;94617.94;5026232;28;20947;-71
2024/02/10 11:01:05;;;;;;;31.03;20.37;;;;;;;14.51;62.56;94620.00;5025022;28;20474;-70
2024/02/10 11:03:31;;;;;;;27.30;20.57;;;;;;;14.51;62.36;94612.13;5025868;28;20540;-71
2024/02/10 11:05:57;;;;;;;27.80;20.57;;;;;;;14.46;62.58;94609.41;5028615;28;20526;-71
2024/02/10 11:08:26;;;;;;;25.03;17.60;;;;;;;14.47;62.70;94594.41;5028901;28;20598;-70
2024/02/10 11:10:59;;;;;;;26.10;18.67;;;;;;;14.32;63.19;94587.06;5031551;28;20199;-71
2024/02/10 11:13:28;;;;;;;25.30;18.00;;;;;;;14.40;63.19;94576.94;5026630;28;20426;-71
2024/02/10 11:16:03;;;;;;;23.20;17.47;;;;;;;14.42;63.44;94574.84;5026166;28;20449;-70
2024/02/10 11:18:33;;;;;;;26.90;17.90;;;;;;;14.44;63.30;94571.97;5029040;28;20475;-70